Guatay, CA (91931)

1:56 AM PDT on September 01, 2015 (GMT -0700)
Valley View Meadow | | Change Station
CLOSE
Current Station
Personal Weather Station
Location: Pine Valley, CA
Elevation: 3658 ft
Nearby Weather Stations

Elev 3658 ft 32.84 °N, 116.53 °W | Updated 5 minutes ago

Partly Cloudy
Partly Cloudy
43.3 °F
Feels Like 43 °F
N
0.0
Wind Variable Wind from NE

Today
High -- | Low -- °F
--% Chance of Precip.
Yesterday
High -- | Low -- °F
Precip. -- in
6:20 AM 7:11 PM
Waning Gibbous, 90% visible
Pressure 29.86 in
Visibility -9999.0 miles
Clouds
Windchill 43 °F
Dew Point 39 °F
Humidity 84%
Rainfall 0.00 in
Snow Depth Not available.
UV Not available.
Pollen 6.20 out of 12
Air Quality Not available.
Flu Activity Not available.
METAR KCZZ 010852Z AUTO 05004KT 11/04 A2995 RMK AO1 SLP109 T01110039 58001
Pressure 29.86 in
Visibility -9999.0 miles
Clouds
Windchill 43 °F
Dew Point 39 °F
Humidity 84%
Rainfall 0.00 in
Snow Depth Not available.
UV Not available.
Pollen 6.20 out of 12
Air Quality Not available.
Flu Activity Not available.
METAR KCZZ 010852Z AUTO 05004KT 11/04 A2995 RMK AO1 SLP109 T01110039 58001

10-Day Weather Forecast

×

Almanac

Astronomy

Sep. 01, 2015 Rise Set
Actual Time
Civil Twilight
Nautical Twilight
Astronomical Twilight
Moon
Length of Visible Light
Length of Day
Tomorrow will be .
, % of the Moon is Illuminated

Today's Extremes

State Highs State Lows

Community

WunderPhotos

Upload Photos

1,851,490 photos uploaded!

WunderBlogs® & News

Nearby

Air Quality

  Air Quality AQ Index Pollutant
Not available.

Snow Depth

Station Depth Elevation

Earthquake Activity

City Distance Mag. Time & Date
Minimum magnitude displayed is 2.5.

Coastal Water Temperatures

Place Temperature

Stations

Nearby Weather Stations

Station Location Temp. Windchill Dew Point Humidity Wind Precip. Elev Updated Type